Terminal Aerodrome Forecast
Issued by NWS Buffalo, NY

Home | Current Version | Previous Version | Text Only | Print | Product List | Glossary On
Versions: 1 2 3 4 5 6 7 8 9 10 11 12 13 14 15 16 17 18 19 20 21 22 23 24 25 26 27 28 29 30 31
000
FTUS41 KBUF 271400 AAB
TAFBUF
TAF AMD
KBUF 271403Z 2714/2812 03007KT 5SM -SN FEW010 OVC035
      TEMPO 2714/2718 3SM -SN OVC015
     FM271800 03010KT P6SM -SN OVC025
     FM272000 36010KT P6SM BKN025
     FM272100 36010KT P6SM BKN080
     FM280100 33006KT P6SM BKN110
     FM280200 32005KT P6SM SCT250
     FM280500 27004KT P6SM SCT250=

USA.gov is the U.S. government's official web portal to all federal, state and local government web resources and services.